createdAt,value
2023-04-18T00:00:15.839Z,21.48
2023-04-18T00:02:42.268Z,21.48
2023-04-18T00:05:08.771Z,21.57
2023-04-18T00:07:35.127Z,21.54
2023-04-18T00:10:01.524Z,21.51
2023-04-18T00:12:27.887Z,21.48
2023-04-18T00:14:54.221Z,21.47
2023-04-18T00:17:20.594Z,21.50
2023-04-18T00:19:46.966Z,21.50
2023-04-18T00:22:13.290Z,21.48
2023-04-18T00:24:39.667Z,21.46
2023-04-18T00:27:06.029Z,21.54
2023-04-18T00:29:32.350Z,21.50
2023-04-18T00:31:58.715Z,21.47
2023-04-18T00:34:25.041Z,21.45
2023-04-18T00:36:51.433Z,21.43
2023-04-18T00:39:17.750Z,21.46
2023-04-18T00:41:44.068Z,21.43
2023-04-18T00:44:10.500Z,21.46
2023-04-18T00:46:36.894Z,21.49
2023-04-18T00:49:03.389Z,21.52
2023-04-18T00:51:29.706Z,21.47
2023-04-18T00:53:56.010Z,21.47
2023-04-18T00:56:22.345Z,21.41
2023-04-18T00:58:48.832Z,21.43
2023-04-18T01:01:15.276Z,21.40
2023-04-18T01:03:41.826Z,21.44
2023-04-18T01:06:08.395Z,21.49
2023-04-18T01:08:34.721Z,21.45
2023-04-18T01:11:01.070Z,21.49
2023-04-18T01:13:27.422Z,21.44
2023-04-18T01:15:53.811Z,21.48
2023-04-18T01:18:20.162Z,21.53
2023-04-18T01:20:46.544Z,21.48
2023-04-18T01:23:12.917Z,21.45
2023-04-18T01:25:39.257Z,21.48
2023-04-18T01:28:05.576Z,21.47
2023-04-18T01:30:31.981Z,21.47
2023-04-18T01:32:58.320Z,21.46
2023-04-18T01:35:24.714Z,21.48
2023-04-18T01:37:51.060Z,21.40
2023-04-18T01:40:17.443Z,21.46
2023-04-18T01:42:43.791Z,21.47
2023-04-18T01:45:10.106Z,21.52
2023-04-18T01:47:36.527Z,21.48
2023-04-18T01:50:02.926Z,21.47
2023-04-18T01:52:29.262Z,21.47
2023-04-18T01:54:55.607Z,21.40
2023-04-18T01:57:21.930Z,21.41
2023-04-18T01:59:48.251Z,21.43
2023-04-18T02:02:14.696Z,21.38
2023-04-18T02:04:41.053Z,21.44
2023-04-18T02:07:07.441Z,21.38
2023-04-18T02:09:33.805Z,21.46
2023-04-18T02:12:00.197Z,21.49
2023-04-18T02:14:26.553Z,21.47
2023-04-18T02:16:52.967Z,21.45
2023-04-18T02:19:19.427Z,21.46
2023-04-18T02:21:45.739Z,21.49
2023-04-18T02:24:12.219Z,21.50
2023-04-18T02:26:38.658Z,21.39
2023-04-18T02:29:05.013Z,21.42
2023-04-18T02:31:31.386Z,21.39
2023-04-18T02:33:57.738Z,21.44
2023-04-18T02:36:24.074Z,21.43
2023-04-18T02:38:50.418Z,21.43
2023-04-18T02:41:16.786Z,21.34
2023-04-18T02:43:43.151Z,21.42
2023-04-18T02:46:09.564Z,21.36
2023-04-18T02:48:36.057Z,21.43
2023-04-18T02:51:02.439Z,21.43
2023-04-18T02:53:28.780Z,21.39
2023-04-18T02:55:55.088Z,21.40
2023-04-18T02:58:21.416Z,21.43
2023-04-18T03:00:47.798Z,21.39
2023-04-18T03:03:14.160Z,21.40
2023-04-18T03:05:40.530Z,21.42
2023-04-18T03:08:06.924Z,21.40
2023-04-18T03:10:33.290Z,21.42
2023-04-18T03:12:59.615Z,21.43
2023-04-18T03:15:25.923Z,21.43
2023-04-18T03:17:52.324Z,21.45
2023-04-18T03:20:18.708Z,21.38
2023-04-18T03:22:45.065Z,21.41
2023-04-18T03:25:11.402Z,21.46
2023-04-18T03:27:37.716Z,21.42
2023-04-18T03:30:04.062Z,21.47
2023-04-18T03:32:30.493Z,21.45
2023-04-18T03:34:56.821Z,21.42
2023-04-18T03:37:23.154Z,21.46
2023-04-18T03:39:49.484Z,21.39
2023-04-18T03:42:15.834Z,21.42
2023-04-18T03:44:42.130Z,21.36
2023-04-18T03:47:08.471Z,21.40
2023-04-18T03:49:34.782Z,21.36
2023-04-18T03:52:01.233Z,21.39
2023-04-18T03:54:27.540Z,21.40
2023-04-18T03:56:53.844Z,21.41
2023-04-18T03:59:20.199Z,21.34
2023-04-18T04:01:46.662Z,21.37
2023-04-18T04:04:13.189Z,21.40
2023-04-18T04:06:39.704Z,21.36
2023-04-18T04:09:06.072Z,21.43
2023-04-18T04:11:32.398Z,21.41
2023-04-18T04:13:58.704Z,21.39
2023-04-18T04:16:25.038Z,21.33
2023-04-18T04:18:51.429Z,21.31
2023-04-18T04:21:20.011Z,21.42
2023-04-18T04:23:47.461Z,21.40
2023-04-18T04:26:13.818Z,21.37
2023-04-18T04:28:40.196Z,21.37
2023-04-18T04:31:06.593Z,21.39
2023-04-18T04:33:32.943Z,21.37
2023-04-18T04:35:59.280Z,21.31
2023-04-18T04:38:25.587Z,21.42
2023-04-18T04:40:51.888Z,21.42
2023-04-18T04:43:18.252Z,21.36
2023-04-18T04:45:44.748Z,21.39
2023-04-18T04:48:11.199Z,21.42
2023-04-18T04:50:37.572Z,21.39
2023-04-18T04:53:03.913Z,21.34
2023-04-18T04:55:30.244Z,21.38
2023-04-18T04:57:56.576Z,21.38
2023-04-18T05:00:22.873Z,21.30
2023-04-18T05:02:49.309Z,21.31
2023-04-18T05:05:15.811Z,21.30
2023-04-18T05:07:42.175Z,21.28
2023-04-18T05:10:08.526Z,21.32
2023-04-18T05:12:34.840Z,21.30
2023-04-18T05:15:01.201Z,21.31
2023-04-18T05:17:27.535Z,21.33
2023-04-18T05:19:53.895Z,21.31
2023-04-18T05:22:20.271Z,21.33
2023-04-18T05:24:46.634Z,21.46
2023-04-18T05:27:13.034Z,21.38
2023-04-18T05:29:39.400Z,21.36
2023-04-18T05:32:05.764Z,21.41
2023-04-18T05:34:32.133Z,21.40
2023-04-18T05:36:58.496Z,21.40
2023-04-18T05:39:24.880Z,21.42
2023-04-18T05:41:51.306Z,21.42
2023-04-18T05:44:17.950Z,21.41
2023-04-18T05:46:44.667Z,21.43
2023-04-18T05:49:11.102Z,21.41
2023-04-18T05:51:37.453Z,21.42
2023-04-18T05:54:03.852Z,21.37
2023-04-18T05:56:30.237Z,21.43
2023-04-18T05:58:56.581Z,21.42
2023-04-18T06:01:22.924Z,21.40
2023-04-18T06:03:49.507Z,21.43
2023-04-18T06:06:16.019Z,21.47
2023-04-18T06:08:42.338Z,21.49
2023-04-18T06:11:08.692Z,21.47
2023-04-18T06:13:35.072Z,21.47
2023-04-18T06:16:01.444Z,21.47
2023-04-18T06:18:27.851Z,21.41
2023-04-18T06:20:54.232Z,21.44
2023-04-18T06:23:20.602Z,21.40
2023-04-18T06:25:46.930Z,21.46
2023-04-18T06:28:13.294Z,21.47
2023-04-18T06:30:39.672Z,21.43
2023-04-18T06:33:06.056Z,21.36
2023-04-18T06:35:32.394Z,21.46
2023-04-18T06:37:58.770Z,21.39
2023-04-18T06:40:25.142Z,21.50
2023-04-18T06:42:51.494Z,21.44
2023-04-18T06:45:17.839Z,21.48
2023-04-18T06:47:44.256Z,21.41
2023-04-18T06:50:10.671Z,21.44
2023-04-18T06:52:36.994Z,21.44
2023-04-18T06:55:03.330Z,21.43
2023-04-18T06:57:29.686Z,21.38
2023-04-18T06:59:55.998Z,21.37
2023-04-18T07:02:22.421Z,21.36
2023-04-18T07:04:48.930Z,21.42
2023-04-18T07:07:15.294Z,21.40
2023-04-18T07:09:41.626Z,21.41
2023-04-18T07:12:07.970Z,21.48
2023-04-18T07:14:34.469Z,21.51
2023-04-18T07:17:00.822Z,21.49
2023-04-18T07:19:27.228Z,21.51
2023-04-18T07:21:53.569Z,21.60
2023-04-18T07:24:19.884Z,21.49
2023-04-18T07:26:46.292Z,21.48
2023-04-18T07:29:12.618Z,21.52
2023-04-18T07:31:38.965Z,21.42
2023-04-18T07:34:05.358Z,21.46
2023-04-18T07:36:31.816Z,21.46
2023-04-18T07:38:58.142Z,21.43
2023-04-18T07:41:24.462Z,21.54
2023-04-18T07:43:50.789Z,21.59
2023-04-18T07:46:17.196Z,21.65
2023-04-18T07:48:43.630Z,21.55
2023-04-18T07:51:10.003Z,21.61
2023-04-18T07:53:36.330Z,21.58
2023-04-18T07:56:02.650Z,21.56
2023-04-18T07:58:29.013Z,21.52
2023-04-18T08:00:55.380Z,21.60
2023-04-18T08:03:21.904Z,21.63
2023-04-18T08:05:48.438Z,21.89
2023-04-18T08:08:14.784Z,21.83
2023-04-18T08:10:41.194Z,21.95
2023-04-18T08:13:07.578Z,21.83
2023-04-18T08:15:33.907Z,21.85
2023-04-18T08:18:00.404Z,21.94
2023-04-18T08:20:27.060Z,21.96
2023-04-18T08:23:05.683Z,22.09
2023-04-18T08:25:34.128Z,22.12
2023-04-18T08:28:00.472Z,22.17
2023-04-18T08:30:26.856Z,22.19
2023-04-18T08:32:53.343Z,22.21
2023-04-18T08:35:19.768Z,22.32
2023-04-18T08:37:46.094Z,22.21
2023-04-18T08:40:12.833Z,22.36
2023-04-18T08:42:39.212Z,22.38
2023-04-18T08:45:05.519Z,22.45
2023-04-18T08:47:31.869Z,22.49
2023-04-18T08:49:58.251Z,22.55
2023-04-18T08:52:24.573Z,22.58
2023-04-18T08:54:50.889Z,22.63
2023-04-18T08:57:17.248Z,22.63
2023-04-18T08:59:43.851Z,22.59
2023-04-18T09:02:11.505Z,22.66
2023-04-18T09:04:38.037Z,22.74
2023-04-18T09:07:04.552Z,22.70
2023-04-18T09:09:30.874Z,22.55
2023-04-18T09:11:57.205Z,22.65
2023-04-18T09:14:23.569Z,22.77
2023-04-18T09:16:49.994Z,22.82
2023-04-18T09:19:16.470Z,22.73
2023-04-18T09:21:42.998Z,22.83
2023-04-18T09:24:09.331Z,22.88
2023-04-18T09:26:35.748Z,22.90
2023-04-18T09:29:02.192Z,22.87
2023-04-18T09:31:28.577Z,22.99
2023-04-18T09:33:54.940Z,22.88
2023-04-18T09:36:21.549Z,22.74
2023-04-18T09:38:47.959Z,22.90
2023-04-18T09:41:14.341Z,22.81
2023-04-18T09:43:40.713Z,22.70
2023-04-18T09:46:07.058Z,22.78
2023-04-18T09:48:33.447Z,22.81
2023-04-18T09:50:59.773Z,22.93
2023-04-18T09:53:26.098Z,22.86
2023-04-18T09:55:52.471Z,22.93
2023-04-18T09:58:18.819Z,22.79
2023-04-18T10:00:46.813Z,22.94
2023-04-18T10:03:13.633Z,23.03
2023-04-18T10:05:40.124Z,23.02
2023-04-18T10:08:06.508Z,22.90
2023-04-18T10:10:32.919Z,22.89
2023-04-18T10:12:59.257Z,22.94
2023-04-18T10:15:25.590Z,23.02
2023-04-18T10:18:03.543Z,22.88
2023-04-18T10:20:31.880Z,23.03
2023-04-18T10:22:58.241Z,22.86
2023-04-18T10:25:24.703Z,22.79
2023-04-18T10:27:51.030Z,22.66
2023-04-18T10:30:17.361Z,22.74
2023-04-18T10:32:43.783Z,22.78
2023-04-18T10:35:10.148Z,22.87
2023-04-18T10:37:36.525Z,22.70
2023-04-18T10:40:02.864Z,22.60
2023-04-18T10:42:29.190Z,22.86
2023-04-18T10:44:55.558Z,22.88
2023-04-18T10:47:22.029Z,22.91
2023-04-18T10:49:48.452Z,22.81
2023-04-18T10:52:14.771Z,22.77
2023-04-18T10:54:41.164Z,22.76
2023-04-18T10:57:07.643Z,22.80
2023-04-18T10:59:34.043Z,22.83
2023-04-18T11:02:00.508Z,22.78
2023-04-18T11:04:26.938Z,22.89
2023-04-18T11:06:53.366Z,22.87
2023-04-18T11:09:19.751Z,22.74
2023-04-18T11:11:46.056Z,22.85
2023-04-18T11:14:12.697Z,22.89
2023-04-18T11:16:39.317Z,22.70
2023-04-18T11:19:05.670Z,22.56
2023-04-18T11:21:32.025Z,22.58
2023-04-18T11:23:58.357Z,22.56
2023-04-18T11:26:24.733Z,22.68
2023-04-18T11:28:51.304Z,22.50
2023-04-18T11:31:17.777Z,22.55
2023-04-18T11:33:44.217Z,22.55
2023-04-18T11:36:10.574Z,22.68
2023-04-18T11:38:36.940Z,22.62
2023-04-18T11:41:03.309Z,22.66
2023-04-18T11:43:29.663Z,22.62
2023-04-18T11:45:56.183Z,22.59
2023-04-18T11:48:22.685Z,22.52
2023-04-18T11:50:49.043Z,22.62
2023-04-18T11:53:15.382Z,22.66
2023-04-18T11:55:41.837Z,22.63
2023-04-18T11:58:08.247Z,22.57
2023-04-18T12:00:34.693Z,22.59
2023-04-18T12:03:01.177Z,22.51
2023-04-18T12:05:27.745Z,22.45
2023-04-18T12:07:54.301Z,22.50
2023-04-18T12:10:20.677Z,22.45
2023-04-18T12:12:47.002Z,22.52
2023-04-18T12:15:13.327Z,22.51
2023-04-18T12:17:39.725Z,22.49
2023-04-18T12:20:06.173Z,22.50
2023-04-18T12:22:32.551Z,22.48
2023-04-18T12:24:58.896Z,22.48
2023-04-18T12:27:25.246Z,22.49
2023-04-18T12:29:51.633Z,22.48
2023-04-18T12:32:18.003Z,22.41
2023-04-18T12:34:44.339Z,22.42
2023-04-18T12:37:10.648Z,22.45
2023-04-18T12:39:36.954Z,22.38
2023-04-18T12:42:03.354Z,22.42
2023-04-18T12:44:29.733Z,22.53
2023-04-18T12:46:56.180Z,22.43
2023-04-18T12:49:22.593Z,22.33
2023-04-18T12:51:48.948Z,22.47
2023-04-18T12:54:15.526Z,22.41
2023-04-18T12:56:41.961Z,22.43
2023-04-18T12:59:08.283Z,22.45
2023-04-18T13:01:34.814Z,22.36
2023-04-18T13:04:11.857Z,22.44
2023-04-18T13:06:39.136Z,22.43
2023-04-18T13:09:05.503Z,22.43
2023-04-18T13:11:31.868Z,22.43
2023-04-18T13:13:58.316Z,22.38
2023-04-18T13:16:24.685Z,22.37
2023-04-18T13:18:51.062Z,22.40
2023-04-18T13:21:17.483Z,22.45
2023-04-18T13:23:43.778Z,22.34
2023-04-18T13:26:10.085Z,22.34
2023-04-18T13:28:36.415Z,22.38
2023-04-18T13:31:02.726Z,22.37
2023-04-18T13:33:29.097Z,22.35
2023-04-18T13:35:55.416Z,22.33
2023-04-18T13:38:21.753Z,22.33
2023-04-18T13:40:49.380Z,22.36
2023-04-18T13:43:16.881Z,22.34
2023-04-18T13:45:43.298Z,22.40
2023-04-18T13:48:09.708Z,22.42
2023-04-18T13:50:36.105Z,22.39
2023-04-18T13:53:02.442Z,22.37
2023-04-18T13:55:28.776Z,22.41
2023-04-18T13:57:55.148Z,22.35
2023-04-18T14:00:21.464Z,22.32
2023-04-18T14:02:48.025Z,22.37
2023-04-18T14:05:14.657Z,22.33
2023-04-18T14:07:40.981Z,22.36
2023-04-18T14:10:07.369Z,22.30
2023-04-18T14:12:33.770Z,22.28
2023-04-18T14:15:00.148Z,22.30
2023-04-18T14:17:26.560Z,22.24
2023-04-18T14:19:52.938Z,22.36
2023-04-18T14:22:19.288Z,22.30
2023-04-18T14:24:45.672Z,22.32
2023-04-18T14:27:12.088Z,22.30
2023-04-18T14:29:38.408Z,22.23
2023-04-18T14:32:04.704Z,22.27
2023-04-18T14:34:33.297Z,22.22
2023-04-18T14:37:01.488Z,22.24
2023-04-18T14:39:27.858Z,22.35
2023-04-18T14:41:54.189Z,22.28
2023-04-18T14:44:20.491Z,22.27
2023-04-18T14:46:46.881Z,22.29
2023-04-18T14:49:13.494Z,22.25
2023-04-18T14:51:39.916Z,22.33
2023-04-18T14:54:06.356Z,22.32
2023-04-18T14:56:32.675Z,22.31
2023-04-18T14:58:59.006Z,22.22
2023-04-18T15:01:25.342Z,22.27
2023-04-18T15:03:51.830Z,22.20
2023-04-18T15:06:18.364Z,22.23
2023-04-18T15:08:44.741Z,22.25
2023-04-18T15:11:11.100Z,22.18
2023-04-18T15:13:37.449Z,22.15
2023-04-18T15:16:03.822Z,22.23
2023-04-18T15:18:30.373Z,22.17
2023-04-18T15:20:56.814Z,22.24
2023-04-18T15:23:23.196Z,22.22
2023-04-18T15:25:49.535Z,22.18
2023-04-18T15:28:15.857Z,22.19
2023-04-18T15:30:42.218Z,22.21
2023-04-18T15:33:08.662Z,22.23
2023-04-18T15:35:35.058Z,22.12
2023-04-18T15:38:01.430Z,22.19
2023-04-18T15:40:27.775Z,22.15
2023-04-18T15:42:54.157Z,22.14
2023-04-18T15:45:20.524Z,22.14
2023-04-18T15:47:46.946Z,22.08
2023-04-18T15:50:13.326Z,22.12
2023-04-18T15:52:39.644Z,22.18
2023-04-18T15:55:05.954Z,22.12
2023-04-18T15:57:32.332Z,22.12
2023-04-18T15:59:58.692Z,22.08
2023-04-18T16:02:25.080Z,22.13
2023-04-18T16:04:51.522Z,22.15
2023-04-18T16:07:17.944Z,22.14
2023-04-18T16:09:44.247Z,22.15
2023-04-18T16:12:10.568Z,22.17
2023-04-18T16:14:36.888Z,22.12
2023-04-18T16:17:03.242Z,22.14
2023-04-18T16:19:29.551Z,22.10
2023-04-18T16:21:55.872Z,22.13
2023-04-18T16:24:22.204Z,22.10
2023-04-18T16:26:48.569Z,22.07
2023-04-18T16:29:14.932Z,22.09
2023-04-18T16:31:41.327Z,22.11
2023-04-18T16:34:07.659Z,22.09
2023-04-18T16:36:34.041Z,22.09
2023-04-18T16:39:00.365Z,22.11
2023-04-18T16:41:26.863Z,22.10
2023-04-18T16:43:53.200Z,22.11
2023-04-18T16:46:19.631Z,22.08
2023-04-18T16:48:46.050Z,22.12
2023-04-18T16:51:12.410Z,22.09
2023-04-18T16:53:38.754Z,22.12
2023-04-18T16:56:05.095Z,22.13
2023-04-18T16:58:31.434Z,22.10
2023-04-18T17:00:57.813Z,22.09
2023-04-18T17:03:24.319Z,22.10
2023-04-18T17:05:50.714Z,22.06
2023-04-18T17:08:17.010Z,22.05
2023-04-18T17:10:43.358Z,22.07
2023-04-18T17:13:09.665Z,22.04
2023-04-18T17:15:36.022Z,22.06
2023-04-18T17:18:02.403Z,22.06
2023-04-18T17:20:28.740Z,22.05
2023-04-18T17:22:55.070Z,22.05
2023-04-18T17:25:21.374Z,22.06
2023-04-18T17:27:47.737Z,22.03
2023-04-18T17:30:14.122Z,22.03
2023-04-18T17:32:40.532Z,21.96
2023-04-18T17:35:06.894Z,22.01
2023-04-18T17:37:33.283Z,22.01
2023-04-18T17:39:59.722Z,21.95
2023-04-18T17:42:26.083Z,21.96
2023-04-18T17:44:52.461Z,21.96
2023-04-18T17:47:18.846Z,21.95
2023-04-18T17:49:45.148Z,21.93
2023-04-18T17:52:11.531Z,21.94
2023-04-18T17:54:37.838Z,22.01
2023-04-18T17:57:04.209Z,22.05
2023-04-18T17:59:30.595Z,22.02
2023-04-18T18:01:57.019Z,22.02
2023-04-18T18:04:26.245Z,22.01
2023-04-18T18:06:53.165Z,21.97
2023-04-18T18:09:19.477Z,21.90
2023-04-18T18:11:45.831Z,21.92
2023-04-18T18:14:12.262Z,21.87
2023-04-18T18:16:38.702Z,21.91
2023-04-18T18:19:05.156Z,21.92
2023-04-18T18:21:31.477Z,21.91
2023-04-18T18:23:57.833Z,21.99
2023-04-18T18:26:24.202Z,21.97
2023-04-18T18:28:50.589Z,21.94
2023-04-18T18:31:17.016Z,21.94
2023-04-18T18:33:43.456Z,21.87
2023-04-18T18:36:09.800Z,21.89
2023-04-18T18:38:36.117Z,21.90
2023-04-18T18:41:03.749Z,21.94
2023-04-18T18:43:30.252Z,21.91
2023-04-18T18:45:56.610Z,21.92
2023-04-18T18:48:23.022Z,21.96
2023-04-18T18:50:49.327Z,21.96
2023-04-18T18:53:15.774Z,21.93
2023-04-18T18:55:42.099Z,21.84
2023-04-18T18:58:08.447Z,21.88
2023-04-18T19:00:34.759Z,21.88
2023-04-18T19:03:01.264Z,21.86
2023-04-18T19:05:27.685Z,21.88
2023-04-18T19:07:53.981Z,21.87
2023-04-18T19:10:20.292Z,21.88
2023-04-18T19:12:46.633Z,21.97
2023-04-18T19:15:12.998Z,21.97
2023-04-18T19:17:39.432Z,21.94
2023-04-18T19:20:05.787Z,21.93
2023-04-18T19:22:32.155Z,21.93
2023-04-18T19:24:58.457Z,21.90
2023-04-18T19:27:24.829Z,21.95
2023-04-18T19:29:51.180Z,21.97
2023-04-18T19:32:17.512Z,21.96
2023-04-18T19:34:43.873Z,21.90
2023-04-18T19:37:10.263Z,21.93
2023-04-18T19:39:36.605Z,21.90
2023-04-18T19:42:02.916Z,21.89
2023-04-18T19:44:29.260Z,21.92
2023-04-18T19:46:55.586Z,21.92
2023-04-18T19:49:21.930Z,21.91
2023-04-18T19:51:48.234Z,21.90
2023-04-18T19:54:14.579Z,21.89
2023-04-18T19:56:40.904Z,21.88
2023-04-18T19:59:07.237Z,21.84
2023-04-18T20:01:33.593Z,21.91
2023-04-18T20:04:00.200Z,21.96
2023-04-18T20:06:26.949Z,21.89
2023-04-18T20:08:53.364Z,21.89
2023-04-18T20:11:19.715Z,21.85
2023-04-18T20:13:46.019Z,21.79
2023-04-18T20:16:12.457Z,21.92
2023-04-18T20:18:38.824Z,21.90
2023-04-18T20:21:05.223Z,21.91
2023-04-18T20:23:31.765Z,21.91
2023-04-18T20:25:58.096Z,21.87
2023-04-18T20:28:24.435Z,21.92
2023-04-18T20:30:50.769Z,21.93
2023-04-18T20:33:17.082Z,21.93
2023-04-18T20:35:43.442Z,21.91
2023-04-18T20:38:09.756Z,21.89
2023-04-18T20:40:36.108Z,21.88
2023-04-18T20:43:02.807Z,21.91
2023-04-18T20:45:29.186Z,21.90
2023-04-18T20:47:55.529Z,21.91
2023-04-18T20:50:22.001Z,21.90
2023-04-18T20:52:48.335Z,21.93
2023-04-18T20:55:14.655Z,21.86
2023-04-18T20:57:40.968Z,21.91
2023-04-18T21:00:07.313Z,21.92
2023-04-18T21:02:33.829Z,21.84
2023-04-18T21:05:00.271Z,21.89
2023-04-18T21:07:26.693Z,21.91
2023-04-18T21:09:53.036Z,21.89
2023-04-18T21:12:19.340Z,21.91
2023-04-18T21:14:45.670Z,21.98
2023-04-18T21:17:12.005Z,21.85
2023-04-18T21:19:38.298Z,21.90
2023-04-18T21:22:04.607Z,21.93
2023-04-18T21:24:30.978Z,21.90
2023-04-18T21:26:57.285Z,21.92
2023-04-18T21:29:23.635Z,21.88
2023-04-18T21:31:50.008Z,21.94
2023-04-18T21:34:16.581Z,21.90
2023-04-18T21:36:43.024Z,21.93
2023-04-18T21:39:09.324Z,21.89
2023-04-18T21:41:35.649Z,21.94
2023-04-18T21:44:01.972Z,21.92
2023-04-18T21:46:28.322Z,21.94
2023-04-18T21:48:54.636Z,21.91
2023-04-18T21:51:21.026Z,21.89
2023-04-18T21:53:47.393Z,21.89
2023-04-18T21:56:13.755Z,21.88
2023-04-18T21:58:40.317Z,21.85
2023-04-18T22:01:06.702Z,21.88
2023-04-18T22:03:33.226Z,21.89
2023-04-18T22:05:59.730Z,21.84
2023-04-18T22:08:26.247Z,21.83
2023-04-18T22:10:52.559Z,21.89
2023-04-18T22:13:18.932Z,21.87
2023-04-18T22:15:45.335Z,21.89
2023-04-18T22:18:11.725Z,21.93
2023-04-18T22:20:38.070Z,21.86
2023-04-18T22:23:04.427Z,21.90
2023-04-18T22:25:30.804Z,21.88
2023-04-18T22:27:57.127Z,21.90
2023-04-18T22:30:23.630Z,21.89
2023-04-18T22:32:50.132Z,21.88
2023-04-18T22:35:16.487Z,21.86
2023-04-18T22:37:42.881Z,21.86
2023-04-18T22:40:09.255Z,21.85
2023-04-18T22:42:37.264Z,21.89
2023-04-18T22:45:04.953Z,21.89
2023-04-18T22:47:31.302Z,21.84
2023-04-18T22:49:57.693Z,21.88
2023-04-18T22:52:24.087Z,21.84
2023-04-18T22:54:50.394Z,21.85
2023-04-18T22:57:16.824Z,21.80
2023-04-18T22:59:43.227Z,21.85
2023-04-18T23:02:09.623Z,21.90
2023-04-18T23:04:36.139Z,21.86
2023-04-18T23:07:02.635Z,21.87
2023-04-18T23:09:29.003Z,21.84
2023-04-18T23:11:55.365Z,21.89
2023-04-18T23:14:21.723Z,21.89
2023-04-18T23:16:48.032Z,21.87
2023-04-18T23:19:14.339Z,21.92
2023-04-18T23:21:40.655Z,21.88
2023-04-18T23:24:06.992Z,21.88
2023-04-18T23:26:33.306Z,21.85
2023-04-18T23:28:59.653Z,21.85
2023-04-18T23:31:26.147Z,21.84
2023-04-18T23:33:52.527Z,21.84
2023-04-18T23:36:18.878Z,21.87
2023-04-18T23:38:45.194Z,21.89
2023-04-18T23:41:11.551Z,21.86
2023-04-18T23:43:37.929Z,21.90
2023-04-18T23:46:04.300Z,21.87
2023-04-18T23:48:30.630Z,21.86
2023-04-18T23:50:56.987Z,21.84
2023-04-18T23:53:23.386Z,21.84
2023-04-18T23:55:50.909Z,21.82
2023-04-18T23:58:17.525Z,21.83
